createdAt,value
2022-12-20T00:02:19.750Z,97792.30
2022-12-20T00:12:25.123Z,97777.02
2022-12-20T00:22:29.194Z,97773.78
2022-12-20T00:32:33.477Z,97767.52
2022-12-20T00:42:37.633Z,97771.83
2022-12-20T00:52:42.635Z,97781.92
2022-12-20T01:02:47.056Z,97777.04
2022-12-20T01:12:51.279Z,97760.20
2022-12-20T01:22:55.160Z,97755.30
2022-12-20T01:32:59.128Z,97759.88
2022-12-20T01:43:02.893Z,97753.66
2022-12-20T01:53:07.174Z,97748.58
2022-12-20T02:03:14.520Z,97738.44
2022-12-20T02:13:28.116Z,97726.08
2022-12-20T02:24:20.636Z,97707.92
2022-12-20T02:34:26.735Z,97697.48
2022-12-20T02:44:51.145Z,97705.64
2022-12-20T02:54:56.139Z,97700.03
2022-12-20T03:05:00.582Z,97684.47
2022-12-20T03:15:05.667Z,97668.03
2022-12-20T03:25:10.001Z,97677.64
2022-12-20T03:35:14.941Z,97686.27
2022-12-20T03:45:19.129Z,97685.26
2022-12-20T03:55:24.470Z,97685.34
2022-12-20T04:05:28.747Z,97686.67
2022-12-20T04:15:34.777Z,97684.33
2022-12-20T04:25:38.942Z,97669.89
2022-12-20T04:35:44.772Z,97657.70
2022-12-20T04:45:51.085Z,97656.80
2022-12-20T04:55:56.484Z,97658.16
2022-12-20T05:06:02.095Z,97650.90
2022-12-20T05:16:08.222Z,97651.91
2022-12-20T05:26:19.175Z,97646.52
2022-12-20T05:36:24.051Z,97659.52
2022-12-20T05:46:28.160Z,97664.98
2022-12-20T05:56:37.553Z,97664.62
2022-12-20T06:06:42.098Z,97669.61
2022-12-20T06:16:47.551Z,97669.14
2022-12-20T06:26:55.053Z,97677.05
2022-12-20T06:37:01.928Z,97674.66
2022-12-20T06:47:09.346Z,97676.12
2022-12-20T06:57:13.719Z,97680.58
2022-12-20T07:07:19.189Z,97677.64
2022-12-20T07:17:23.087Z,97673.75
2022-12-20T07:27:27.176Z,97661.77
2022-12-20T07:37:31.798Z,97651.27
2022-12-20T07:47:36.438Z,97647.42
2022-12-20T07:57:49.839Z,97650.23
2022-12-20T08:07:59.575Z,97651.42
2022-12-20T08:18:03.799Z,97649.29
2022-12-20T08:28:07.576Z,97645.36
2022-12-20T08:38:11.540Z,97642.31
2022-12-20T08:48:15.678Z,97634.85
2022-12-20T08:58:20.918Z,97636.44
2022-12-20T09:08:24.800Z,97619.59
2022-12-20T09:18:28.662Z,97612.06
2022-12-20T09:28:34.596Z,97605.11
2022-12-20T09:38:38.537Z,97598.48
2022-12-20T09:48:44.340Z,97590.48
2022-12-20T09:59:07.769Z,97584.75
2022-12-20T10:09:41.108Z,97575.67
2022-12-20T10:20:09.762Z,97581.40
2022-12-20T10:30:25.709Z,97565.80
2022-12-20T10:41:09.992Z,97540.67
2022-12-20T10:51:16.102Z,97507.84
2022-12-20T11:01:23.272Z,97487.94
2022-12-20T11:11:27.928Z,97461.95
2022-12-20T11:21:34.869Z,97442.66
2022-12-20T11:32:15.872Z,97447.23
2022-12-20T11:42:32.638Z,97451.02
2022-12-20T11:52:44.246Z,97454.03
2022-12-20T12:02:59.653Z,97438.05
2022-12-20T12:13:24.257Z,97421.93
2022-12-20T12:23:58.621Z,97421.69
2022-12-20T12:34:25.190Z,97422.91
2022-12-20T12:44:55.374Z,97402.23
2022-12-20T12:54:59.649Z,97395.05
2022-12-20T13:05:09.659Z,97382.59
2022-12-20T13:15:23.359Z,97363.61
2022-12-20T13:25:31.884Z,97364.23
2022-12-20T13:35:57.165Z,97369.33
2022-12-20T13:46:10.295Z,97379.27
2022-12-20T13:56:50.891Z,97368.74
2022-12-20T14:06:59.406Z,97366.23
2022-12-20T14:17:41.208Z,97372.27
2022-12-20T14:27:49.623Z,97367.64
2022-12-20T14:38:02.959Z,97360.73
2022-12-20T14:48:16.976Z,97362.18
2022-12-20T14:58:34.853Z,97368.70
2022-12-20T15:08:39.030Z,97363.75
2022-12-20T15:18:43.794Z,97359.17
2022-12-20T15:28:48.109Z,97362.14
2022-12-20T15:39:14.178Z,97361.95
2022-12-20T15:49:22.424Z,97348.06
2022-12-20T16:09:53.023Z,97335.45
2022-12-20T16:19:57.533Z,97336.66
2022-12-20T16:30:02.287Z,97343.10
2022-12-20T16:40:07.929Z,97340.95
2022-12-20T16:50:13.003Z,97336.75
2022-12-20T17:00:20.878Z,97327.34
2022-12-20T17:10:27.366Z,97303.46
2022-12-20T17:20:36.618Z,97284.00
2022-12-20T17:30:41.230Z,97287.16
2022-12-20T17:40:45.519Z,97278.70
2022-12-20T17:50:49.896Z,97285.07
2022-12-20T18:00:54.844Z,97274.27
2022-12-20T18:10:59.462Z,97289.11
2022-12-20T18:21:12.068Z,97268.67
2022-12-20T18:31:21.621Z,97255.39
2022-12-20T18:41:28.902Z,97232.04
2022-12-20T18:51:37.106Z,97223.84
2022-12-20T19:01:43.367Z,97208.07
2022-12-20T19:11:53.057Z,97215.66
2022-12-20T19:22:02.218Z,97210.69
2022-12-20T19:32:07.172Z,97208.79
2022-12-20T19:42:24.228Z,97196.54
2022-12-20T19:52:30.456Z,97191.84
2022-12-20T20:02:36.417Z,97184.30
2022-12-20T20:12:41.567Z,97183.13
2022-12-20T20:22:46.586Z,97186.54
2022-12-20T20:32:52.675Z,97188.69
2022-12-20T20:42:57.418Z,97192.02
2022-12-20T20:53:02.494Z,97186.41
2022-12-20T21:03:07.354Z,97189.99
2022-12-20T21:13:12.757Z,97168.02
2022-12-20T21:23:17.054Z,97165.20
2022-12-20T21:33:21.431Z,97155.49
2022-12-20T21:43:26.431Z,97153.55
2022-12-20T21:53:32.019Z,97142.17
2022-12-20T22:03:37.547Z,97130.01
2022-12-20T22:13:42.571Z,97117.44
2022-12-20T22:23:47.353Z,97098.05
2022-12-20T22:33:55.302Z,97071.74
2022-12-20T22:44:00.618Z,97053.55
2022-12-20T22:54:05.902Z,97050.70
2022-12-20T23:04:09.674Z,97057.79
2022-12-20T23:14:37.940Z,97024.94
2022-12-20T23:24:42.271Z,97024.23
2022-12-20T23:34:46.406Z,97005.15
2022-12-20T23:44:50.314Z,96989.35
2022-12-20T23:54:54.287Z,96993.55
